Time;durP1;ratioP1;P1;durP2;ratioP2;P2;SDS_P1;SDS_P2;PMS_P1;PMS_P2;Temp;Humidity;BMP_temperature;BMP_pressure;BME280_temperature;BME280_humidity;BME280_pressure;Samples;Min_cycle;Max_cycle;Signal;HPM_P1;HPM_P2
2023/06/25 00:00:39;;;;;;;3.90;1.90;;;;;;;23.78;41.82;101479.59;4996213;28;20490;-56
2023/06/25 00:03:05;;;;;;;3.85;2.10;;;;;;;23.91;43.25;101484.47;4995994;28;20101;-56
2023/06/25 00:05:32;;;;;;;5.85;2.00;;;;;;;24.13;41.92;101483.28;4995955;28;20101;-56
2023/06/25 00:07:58;;;;;;;3.22;2.05;;;;;;;24.04;42.70;101477.59;4996035;28;20026;-55
2023/06/25 00:10:24;;;;;;;5.10;2.15;;;;;;;24.19;44.39;101482.97;4995895;28;20042;-56
2023/06/25 00:12:50;;;;;;;3.30;1.83;;;;;;;24.11;42.84;101474.53;4996010;28;20023;-56
2023/06/25 00:15:16;;;;;;;1.85;1.63;;;;;;;24.08;43.05;101475.09;4995890;28;20022;-56
2023/06/25 00:17:47;;;;;;;2.60;2.03;;;;;;;23.89;42.70;101483.94;4995922;28;20035;-56
2023/06/25 00:20:15;;;;;;;3.63;1.80;;;;;;;23.63;44.28;101469.53;4995710;28;20036;-56
2023/06/25 00:22:43;;;;;;;3.72;1.90;;;;;;;23.62;43.41;101470.63;4995555;28;20034;-56
2023/06/25 00:25:09;;;;;;;2.58;1.75;;;;;;;23.24;43.32;101463.88;4995519;28;20045;-57
2023/06/25 00:27:36;;;;;;;3.15;1.52;;;;;;;23.53;43.88;101458.59;4995502;28;20042;-56
2023/06/25 00:30:02;;;;;;;1.88;1.60;;;;;;;23.66;43.36;101457.25;4995492;28;20096;-57
2023/06/25 00:32:29;;;;;;;2.50;1.88;;;;;;;23.65;43.00;101461.06;4995332;28;20022;-56
2023/06/25 00:34:58;;;;;;;2.53;1.50;;;;;;;23.67;44.13;101456.97;4995410;28;20034;-57
2023/06/25 00:37:24;;;;;;;2.83;1.50;;;;;;;23.30;44.17;101459.22;4995297;28;20412;-57
2023/06/25 00:39:51;;;;;;;3.58;1.63;;;;;;;23.49;43.33;101451.25;4995798;28;20109;-57
2023/06/25 00:42:17;;;;;;;2.20;1.60;;;;;;;22.49;44.00;101451.84;4995160;28;20050;-57
2023/06/25 00:44:44;;;;;;;4.35;1.50;;;;;;;23.21;44.28;101456.25;4995259;28;20519;-56
2023/06/25 00:47:12;;;;;;;1.80;1.40;;;;;;;22.97;42.22;101455.16;4995214;28;20030;-57
2023/06/25 00:49:46;;;;;;;2.10;1.58;;;;;;;23.29;44.34;101455.66;4995388;28;20065;-57
2023/06/25 00:52:15;;;;;;;7.43;2.10;;;;;;;23.45;43.72;101453.72;4995139;28;20033;-56
2023/06/25 00:54:43;;;;;;;2.20;1.58;;;;;;;23.37;43.89;101452.34;4994937;28;20026;-57
2023/06/25 00:57:10;;;;;;;2.72;1.67;;;;;;;22.65;42.62;101464.38;4994931;28;20031;-57
2023/06/25 00:59:41;;;;;;;2.92;1.65;;;;;;;23.08;44.47;101456.78;4994729;28;20050;-57
2023/06/25 01:02:36;;;;;;;2.67;1.50;;;;;;;23.15;43.93;101447.22;4994109;28;20030;-56
2023/06/25 01:05:20;;;;;;;4.25;1.90;;;;;;;23.26;43.58;101448.00;4994927;28;20029;-57
2023/06/25 01:07:47;;;;;;;4.37;1.87;;;;;;;23.32;44.37;101452.38;4994762;28;20423;-57
2023/06/25 01:10:14;;;;;;;6.45;1.90;;;;;;;22.90;43.92;101449.97;4994637;28;20088;-57
2023/06/25 01:12:42;;;;;;;3.72;2.03;;;;;;;23.02;45.52;101453.25;4994757;28;20030;-56
2023/06/25 01:15:12;;;;;;;4.82;1.92;;;;;;;23.03;44.90;101456.78;4994703;28;20110;-56
2023/06/25 01:17:41;;;;;;;7.85;1.95;;;;;;;23.07;44.98;101450.50;4994617;28;20408;-56
2023/06/25 01:20:11;;;;;;;4.13;2.20;;;;;;;23.18;45.27;101449.41;4994672;28;20463;-56
2023/06/25 01:22:47;;;;;;;5.95;1.77;;;;;;;23.13;44.01;101448.59;5108574;27;20938;-55
2023/06/25 01:25:13;;;;;;;3.33;2.33;;;;;;;23.21;43.90;101449.94;5108673;28;20577;-56
2023/06/25 01:27:39;;;;;;;4.40;1.80;;;;;;;23.07;43.36;101453.25;5109554;28;20380;-56
2023/06/25 01:30:07;;;;;;;5.20;2.05;;;;;;;23.05;43.57;101451.88;5109429;28;20161;-56
2023/06/25 01:32:34;;;;;;;2.25;1.60;;;;;;;23.10;43.64;101454.63;5107735;28;20404;-56
2023/06/25 01:35:00;;;;;;;3.15;1.85;;;;;;;22.98;44.86;101460.34;5109595;28;20027;-55
2023/06/25 01:37:28;;;;;;;2.75;1.70;;;;;;;22.73;44.61;101461.13;5109225;28;20028;-49
2023/06/25 01:39:55;;;;;;;4.38;1.83;;;;;;;22.75;45.45;101469.03;5108420;28;20024;-54
2023/06/25 01:42:22;;;;;;;2.67;1.80;;;;;;;22.47;45.12;101478.56;5108728;28;20031;-50
2023/06/25 01:44:48;;;;;;;4.97;2.25;;;;;;;22.57;46.04;101476.66;5109548;28;20380;-49
2023/06/25 01:47:14;;;;;;;4.18;2.10;;;;;;;22.49;46.25;101476.41;5109360;28;20023;-50
2023/06/25 01:49:40;;;;;;;3.45;2.00;;;;;;;22.69;45.29;101481.88;5109275;28;20397;-47
2023/06/25 01:52:07;;;;;;;5.72;1.80;;;;;;;22.77;46.30;101494.16;5108466;28;20036;-49
2023/06/25 01:54:34;;;;;;;2.67;1.63;;;;;;;22.98;45.30;101490.38;5107904;28;20032;-48
2023/06/25 01:57:01;;;;;;;2.67;1.98;;;;;;;23.14;44.28;101491.19;5109078;28;20472;-49
2023/06/25 01:59:27;;;;;;;4.32;1.60;;;;;;;23.45;43.90;101495.50;5108903;28;20361;-47
2023/06/25 02:01:54;;;;;;;4.82;2.08;;;;;;;23.48;42.67;101487.84;5108745;28;20115;-48
2023/06/25 02:04:20;;;;;;;6.53;2.30;;;;;;;23.79;42.90;101492.16;5108911;28;20032;-49
2023/06/25 02:06:47;;;;;;;4.28;1.60;;;;;;;23.90;42.12;101496.50;5109018;28;20023;-50
2023/06/25 02:09:14;;;;;;;2.00;1.50;;;;;;;24.42;40.94;101489.69;5108914;28;20085;-49
2023/06/25 02:11:41;;;;;;;8.15;1.92;;;;;;;24.66;40.35;101491.75;5108311;28;20057;-50
2023/06/25 02:14:07;;;;;;;2.22;1.42;;;;;;;24.92;39.80;101495.09;5108771;28;20020;-51
2023/06/25 02:16:33;;;;;;;2.80;1.80;;;;;;;24.89;40.32;101496.50;5107592;28;20028;-50
2023/06/25 02:18:59;;;;;;;4.13;1.88;;;;;;;24.62;39.27;101496.16;5097967;27;20024;-50
2023/06/25 02:21:25;;;;;;;2.25;1.67;;;;;;;24.94;39.42;101495.66;5087313;28;20044;-50
2023/06/25 02:23:52;;;;;;;4.15;2.55;;;;;;;25.06;38.97;101492.56;5088287;28;20103;-49
2023/06/25 02:26:18;;;;;;;3.20;1.65;;;;;;;25.08;38.79;101499.38;5088703;28;20032;-49
2023/06/25 02:28:44;;;;;;;2.00;1.50;;;;;;;25.35;38.35;101504.34;5094411;28;20481;-48
2023/06/25 02:31:10;;;;;;;4.75;1.75;;;;;;;25.25;38.86;101507.16;5102845;28;20051;-49
2023/06/25 02:33:37;;;;;;;3.92;2.00;;;;;;;25.36;38.49;101505.97;5084429;28;20024;-47
2023/06/25 02:36:03;;;;;;;3.95;1.60;;;;;;;25.47;37.86;101502.00;5087884;28;20039;-47
2023/06/25 02:38:29;;;;;;;3.25;1.63;;;;;;;25.19;38.08;101520.09;5086773;28;20032;-48
2023/06/25 02:40:56;;;;;;;2.15;1.60;;;;;;;24.90;39.00;101522.78;5094517;28;20410;-50
2023/06/25 02:43:22;;;;;;;3.08;2.28;;;;;;;24.86;38.99;101513.50;5089331;28;20029;-50
2023/06/25 02:45:48;;;;;;;3.25;1.80;;;;;;;24.85;38.79;101520.06;5078837;28;20025;-50
2023/06/25 02:48:14;;;;;;;3.05;1.70;;;;;;;24.79;39.03;101517.66;5094811;28;20043;-51
2023/06/25 02:50:41;;;;;;;2.10;1.67;;;;;;;24.76;38.78;101519.03;5094161;28;20385;-51
2023/06/25 02:53:07;;;;;;;5.20;2.83;;;;;;;24.64;39.12;101521.31;5094595;28;20024;-50
2023/06/25 02:55:33;;;;;;;4.57;2.13;;;;;;;24.11;39.97;101523.78;5094394;28;20024;-50
2023/06/25 02:57:59;;;;;;;2.95;1.73;;;;;;;23.96;40.74;101521.91;5094665;28;20024;-50
2023/06/25 03:00:26;;;;;;;2.78;1.90;;;;;;;23.63;41.18;101513.25;5094244;28;20024;-50
2023/06/25 03:02:52;;;;;;;5.88;2.05;;;;;;;23.18;41.98;101520.41;5094073;28;20032;-51
2023/06/25 03:05:18;;;;;;;3.63;2.05;;;;;;;23.27;41.99;101528.88;5094018;28;20027;-50
2023/06/25 03:07:55;;;;;;;1.77;1.63;;;;;;;22.83;42.17;101529.38;5094254;28;20034;-51
2023/06/25 03:10:27;;;;;;;2.55;1.75;;;;;;;22.14;43.08;101527.81;5093689;28;20110;-49
2023/06/25 03:12:54;;;;;;;2.72;1.80;;;;;;;21.56;44.66;101540.56;5093963;28;20099;-51
2023/06/25 03:15:20;;;;;;;2.00;1.65;;;;;;;21.28;45.21;101533.53;5092801;28;20484;-51
2023/06/25 03:17:47;;;;;;;3.78;2.22;;;;;;;20.09;48.38;101530.91;5094166;28;20043;-50
2023/06/25 03:20:13;;;;;;;2.83;1.88;;;;;;;20.29;48.23;101542.06;5093488;28;20062;-51
2023/06/25 03:22:40;;;;;;;5.72;2.35;;;;;;;19.68;50.15;101538.53;5075400;28;20557;-48
2023/06/25 03:25:07;;;;;;;4.68;2.13;;;;;;;19.25;51.51;101551.69;5073755;28;20078;-49
2023/06/25 03:27:34;;;;;;;2.60;2.03;;;;;;;18.92;52.70;101555.19;5073523;28;20021;-47
2023/06/25 03:30:00;;;;;;;2.65;2.20;;;;;;;18.64;53.04;101547.03;5090983;28;20127;-50
2023/06/25 03:32:26;;;;;;;3.88;2.35;;;;;;;18.40;54.16;101546.31;5080046;28;20078;-51
2023/06/25 03:34:55;;;;;;;3.00;2.40;;;;;;;17.94;55.64;101548.06;5073829;28;20028;-47
2023/06/25 03:37:22;;;;;;;4.53;2.33;;;;;;;17.55;57.31;101544.19;5093583;28;20480;-49
2023/06/25 03:39:48;;;;;;;3.90;2.30;;;;;;;17.42;57.77;101550.63;5093189;28;20036;-49
2023/06/25 03:42:15;;;;;;;6.28;2.75;;;;;;;17.11;58.62;101546.38;5093213;28;20506;-50
2023/06/25 03:44:50;;;;;;;3.92;2.53;;;;;;;16.81;59.97;101544.50;5092754;28;20086;-50
2023/06/25 03:47:16;;;;;;;;;;;;;;;16.90;59.65;101547.72;5093972;28;20028;-49
2023/06/25 03:49:43;;;;;;;3.85;2.40;;;;;;;16.58;60.62;101553.31;5092671;28;20292;-50
2023/06/25 03:52:09;;;;;;;5.22;2.40;;;;;;;16.43;61.45;101563.69;5092846;28;20038;-49
2023/06/25 03:54:35;;;;;;;3.33;2.60;;;;;;;16.59;61.21;101552.25;5093234;28;20030;-50
2023/06/25 03:57:02;;;;;;;3.83;2.63;;;;;;;16.44;61.45;101559.16;5090218;28;20051;-48
2023/06/25 03:59:29;;;;;;;4.38;2.53;;;;;;;16.54;61.30;101559.41;5091324;28;20016;-46
2023/06/25 04:01:55;;;;;;;4.43;2.22;;;;;;;16.71;60.90;101555.06;5092330;28;20488;-47
2023/06/25 04:04:21;;;;;;;3.80;2.40;;;;;;;16.61;60.98;101560.16;5092594;28;20057;-47
2023/06/25 04:06:47;;;;;;;5.40;2.75;;;;;;;16.26;62.10;101562.66;5087646;28;20085;-48
2023/06/25 04:09:14;;;;;;;4.90;2.42;;;;;;;16.31;62.40;101563.63;5087034;28;20028;-48
2023/06/25 04:11:40;;;;;;;6.13;2.90;;;;;;;16.08;63.38;101571.59;5092506;28;20111;-49
2023/06/25 04:14:06;;;;;;;5.93;3.47;;;;;;;16.03;63.83;101569.56;5087868;28;20102;-47
2023/06/25 04:16:32;;;;;;;3.97;2.85;;;;;;;16.24;63.30;101562.91;5089461;28;20210;-49
2023/06/25 04:18:59;;;;;;;4.53;2.83;;;;;;;16.11;63.60;101571.16;5092405;28;20055;-49
2023/06/25 04:21:25;;;;;;;6.43;3.38;;;;;;;15.98;64.25;101577.50;5083461;28;20041;-51
2023/06/25 04:23:51;;;;;;;5.65;3.55;;;;;;;16.19;63.61;101578.13;5091299;28;20059;-51
2023/06/25 04:26:17;;;;;;;4.18;3.28;;;;;;;15.99;64.23;101584.59;5091637;28;20107;-50
2023/06/25 04:28:43;;;;;;;4.22;2.83;;;;;;;15.84;65.04;101590.34;5092126;28;20027;-51
2023/06/25 04:31:10;;;;;;;4.85;3.22;;;;;;;15.85;64.82;101583.06;5090501;28;20032;-50
2023/06/25 04:33:41;;;;;;;5.85;3.35;;;;;;;15.92;64.71;101586.50;5092143;28;20095;-51
2023/06/25 04:36:08;;;;;;;7.10;3.38;;;;;;;15.89;64.98;101591.53;5091526;28;20345;-51
2023/06/25 04:38:34;;;;;;;5.22;3.20;;;;;;;15.87;65.09;101591.75;5092365;28;20380;-52
2023/06/25 04:41:01;;;;;;;4.85;3.25;;;;;;;15.83;65.56;101585.16;5091961;28;20430;-52
2023/06/25 04:43:27;;;;;;;6.10;3.03;;;;;;;15.71;65.86;101592.31;5091531;28;20035;-50
2023/06/25 04:45:54;;;;;;;4.85;3.60;;;;;;;15.85;65.09;101588.47;5091759;28;20425;-51
2023/06/25 04:48:20;;;;;;;6.25;3.95;;;;;;;15.72;65.41;101581.31;5091634;28;20047;-50
2023/06/25 04:50:46;;;;;;;5.40;3.25;;;;;;;15.76;65.09;101587.06;5091167;28;20066;-52
2023/06/25 04:53:13;;;;;;;3.67;3.10;;;;;;;15.72;65.09;101580.50;5091901;28;20074;-52
2023/06/25 04:55:39;;;;;;;4.90;3.10;;;;;;;15.71;65.02;101590.47;5091447;28;20036;-52
2023/06/25 04:58:05;;;;;;;4.85;3.30;;;;;;;15.70;65.28;101591.50;5092154;28;20035;-51
2023/06/25 05:00:32;;;;;;;4.25;3.40;;;;;;;15.84;65.15;101600.31;5091466;28;20012;-52
2023/06/25 05:02:58;;;;;;;5.15;3.85;;;;;;;15.82;65.25;101599.69;5092117;28;20024;-51
2023/06/25 05:05:24;;;;;;;4.53;2.78;;;;;;;15.83;64.97;101604.88;5091947;28;20020;-51
2023/06/25 05:07:50;;;;;;;6.30;2.88;;;;;;;15.76;65.39;101605.97;5092040;28;20028;-52
2023/06/25 05:10:19;;;;;;;6.45;4.07;;;;;;;15.83;65.31;101610.28;5091785;28;20061;-51
2023/06/25 05:12:47;;;;;;;5.13;4.63;;;;;;;15.87;65.04;101604.41;5091839;28;20092;-51
2023/06/25 05:15:14;;;;;;;4.70;3.22;;;;;;;15.85;65.73;101620.84;5091999;28;20059;-50
2023/06/25 05:17:41;;;;;;;6.32;3.70;;;;;;;15.93;65.63;101617.03;5091475;28;20055;-51
2023/06/25 05:20:08;;;;;;;5.93;3.13;;;;;;;16.19;64.69;101622.16;5091717;28;20421;-51
2023/06/25 05:22:35;;;;;;;4.60;2.90;;;;;;;16.23;64.04;101615.28;5072599;28;20068;-51
2023/06/25 05:25:01;;;;;;;3.47;2.92;;;;;;;16.01;64.70;101616.75;5071731;28;20035;-50
2023/06/25 05:27:27;;;;;;;4.97;3.15;;;;;;;16.08;64.71;101618.34;5071682;28;20024;-51
2023/06/25 05:29:53;;;;;;;3.60;2.65;;;;;;;16.11;64.46;101608.97;5071432;28;20024;-50
2023/06/25 05:32:20;;;;;;;5.20;2.85;;;;;;;16.16;64.57;101608.28;5071490;28;20029;-49
2023/06/25 05:34:46;;;;;;;3.47;3.17;;;;;;;16.23;64.21;101609.88;5079188;28;20107;-50
2023/06/25 05:37:12;;;;;;;4.80;3.22;;;;;;;16.26;63.69;101614.00;5091678;28;20052;-49
2023/06/25 05:39:38;;;;;;;5.82;3.42;;;;;;;16.40;64.36;101617.38;5091574;28;20443;-49
2023/06/25 05:42:05;;;;;;;4.20;2.70;;;;;;;16.26;64.66;101620.22;5091589;28;20039;-48
2023/06/25 05:44:31;;;;;;;5.25;2.63;;;;;;;16.36;64.13;101628.63;5091813;28;20103;-47
2023/06/25 05:46:57;;;;;;;7.20;2.83;;;;;;;16.37;64.11;101627.56;5091980;28;20083;-47
2023/06/25 05:49:23;;;;;;;8.23;3.00;;;;;;;16.25;64.84;101623.16;5084809;28;20516;-47
2023/06/25 05:51:50;;;;;;;6.20;3.05;;;;;;;16.19;65.04;101626.75;5078960;28;20035;-49
2023/06/25 05:54:17;;;;;;;8.00;2.97;;;;;;;16.26;64.25;101632.91;5091534;28;20427;-49
2023/06/25 05:56:43;;;;;;;5.15;3.13;;;;;;;16.33;64.66;101633.66;5091578;28;20029;-49
2023/06/25 05:59:09;;;;;;;7.90;3.05;;;;;;;16.15;64.93;101634.47;5091208;28;20031;-51
2023/06/25 06:01:38;;;;;;;6.55;3.33;;;;;;;16.10;65.58;101634.31;5089784;28;20494;-49
2023/06/25 06:04:05;;;;;;;5.85;3.05;;;;;;;16.29;64.34;101622.47;5090065;28;20032;-51
2023/06/25 06:06:32;;;;;;;4.95;2.75;;;;;;;16.08;64.85;101626.44;5091016;28;20021;-48
2023/06/25 06:08:58;;;;;;;4.80;2.50;;;;;;;16.12;64.66;101636.81;5094078;28;20032;-48
2023/06/25 06:11:24;;;;;;;6.72;2.80;;;;;;;15.75;65.72;101632.16;5094275;28;20585;-49
2023/06/25 06:13:50;;;;;;;3.25;2.47;;;;;;;15.63;65.58;101628.50;5095088;28;20043;-51
2023/06/25 06:16:17;;;;;;;6.88;2.35;;;;;;;15.70;65.63;101629.28;5095082;28;20032;-48
2023/06/25 06:18:43;;;;;;;2.97;2.20;;;;;;;15.58;66.24;101629.13;5094991;28;20066;-50
2023/06/25 06:21:09;;;;;;;4.97;2.63;;;;;;;15.54;66.84;101633.31;5088901;28;20435;-51
2023/06/25 06:23:35;;;;;;;4.50;2.72;;;;;;;15.63;66.79;101636.59;5074593;28;20028;-51
2023/06/25 06:26:01;;;;;;;3.20;2.90;;;;;;;15.73;66.17;101633.44;5084336;28;20469;-47
2023/06/25 06:28:28;;;;;;;3.97;3.17;;;;;;;15.87;66.08;101640.34;5094654;28;20031;-49
2023/06/25 06:30:54;;;;;;;5.68;3.35;;;;;;;16.00;65.67;101639.41;5094697;28;20106;-52
2023/06/25 06:33:20;;;;;;;4.22;3.45;;;;;;;15.89;65.88;101635.56;5094832;28;20099;-50
2023/06/25 06:35:47;;;;;;;5.00;3.70;;;;;;;16.05;65.34;101635.00;5094795;28;20090;-50
2023/06/25 06:38:13;;;;;;;4.88;2.60;;;;;;;16.20;65.34;101637.31;5094665;28;20393;-52
2023/06/25 06:40:39;;;;;;;4.28;2.97;;;;;;;16.12;65.04;101628.69;5094358;28;20024;-51
2023/06/25 06:43:05;;;;;;;5.05;3.00;;;;;;;15.93;66.00;101634.06;5094508;28;20067;-49
2023/06/25 06:45:32;;;;;;;4.63;2.83;;;;;;;16.01;65.77;101638.34;5094545;28;20074;-51
2023/06/25 06:47:58;;;;;;;3.20;2.90;;;;;;;16.04;66.19;101635.19;5094600;28;20119;-51
2023/06/25 06:50:24;;;;;;;7.63;4.72;;;;;;;15.91;65.37;101638.03;5094242;28;20020;-51
2023/06/25 06:52:50;;;;;;;4.00;3.60;;;;;;;15.99;65.06;101638.59;5094365;28;20059;-49
2023/06/25 06:55:16;;;;;;;3.53;3.15;;;;;;;16.01;65.13;101643.75;5094572;28;20047;-47
2023/06/25 06:57:43;;;;;;;4.15;3.00;;;;;;;16.10;65.37;101645.97;5078025;28;20024;-51
2023/06/25 07:00:09;;;;;;;4.05;3.00;;;;;;;16.00;65.97;101644.81;5084606;28;20054;-51
2023/06/25 07:02:36;;;;;;;4.00;3.08;;;;;;;15.87;66.62;101643.03;5094153;28;20031;-51
2023/06/25 07:05:02;;;;;;;4.35;3.00;;;;;;;15.92;66.22;101654.00;5087348;28;20043;-48
2023/06/25 07:07:28;;;;;;;4.57;2.72;;;;;;;16.05;65.99;101643.09;5074021;28;20074;-50
2023/06/25 07:09:54;;;;;;;6.60;3.63;;;;;;;16.05;65.85;101644.97;5075589;28;20055;-50
2023/06/25 07:12:21;;;;;;;4.13;3.10;;;;;;;16.12;65.61;101642.22;5094086;28;20016;-50
2023/06/25 07:14:47;;;;;;;5.95;3.20;;;;;;;16.21;65.89;101635.44;5094356;28;20059;-51
2023/06/25 07:17:14;;;;;;;3.72;2.97;;;;;;;16.15;65.55;101639.03;5093698;28;20023;-50
2023/06/25 07:19:40;;;;;;;5.05;2.75;;;;;;;16.21;65.57;101636.28;5092876;28;20499;-49
2023/06/25 07:22:06;;;;;;;3.83;2.55;;;;;;;16.20;65.44;101640.03;5092890;28;20060;-50
2023/06/25 07:24:33;;;;;;;5.93;3.13;;;;;;;16.13;65.76;101644.66;5093346;28;20032;-50
2023/06/25 07:27:00;;;;;;;4.75;2.90;;;;;;;15.98;66.36;101636.09;5093138;28;20039;-49
2023/06/25 07:29:27;;;;;;;3.70;2.80;;;;;;;15.85;66.94;101626.25;5093340;28;20020;-49
2023/06/25 07:31:54;;;;;;;3.63;2.60;;;;;;;15.81;67.05;101625.84;5093569;28;20110;-51
2023/06/25 07:34:21;;;;;;;4.47;2.67;;;;;;;15.85;66.71;101628.94;5093317;28;20519;-50
2023/06/25 07:36:47;;;;;;;4.35;2.60;;;;;;;15.67;66.16;101623.50;5093842;28;20472;-49
2023/06/25 07:39:25;;;;;;;4.95;2.25;;;;;;;15.66;66.20;101628.09;5093628;28;20028;-51
2023/06/25 07:41:52;;;;;;;4.22;2.70;;;;;;;15.64;66.57;101634.72;5093412;28;20468;-51
2023/06/25 07:44:18;;;;;;;3.58;2.58;;;;;;;15.63;66.04;101625.81;5093582;28;20016;-50
2023/06/25 07:46:44;;;;;;;6.50;2.70;;;;;;;15.63;65.54;101625.81;5093462;28;20496;-48
2023/06/25 07:49:10;;;;;;;3.58;2.90;;;;;;;15.46;66.42;101628.19;5093232;28;20036;-51
2023/06/25 07:51:37;;;;;;;3.10;2.30;;;;;;;15.44;66.81;101624.09;5092839;28;20044;-51
2023/06/25 07:54:03;;;;;;;3.53;2.45;;;;;;;15.53;66.61;101628.97;5093118;28;20053;-47
2023/06/25 07:56:29;;;;;;;4.13;2.60;;;;;;;15.26;67.41;101622.13;5087328;28;20021;-48
2023/06/25 07:58:55;;;;;;;4.22;2.70;;;;;;;15.40;66.74;101629.06;5073277;28;20078;-51
2023/06/25 08:01:22;;;;;;;3.72;2.35;;;;;;;15.24;67.04;101627.72;5072661;28;20110;-51
2023/06/25 08:03:48;;;;;;;2.75;2.33;;;;;;;15.18;67.21;101625.09;5072831;28;20075;-51
2023/06/25 08:06:14;;;;;;;5.82;2.85;;;;;;;15.09;67.78;101627.19;5072781;28;20082;-51
2023/06/25 08:08:40;;;;;;;4.18;2.10;;;;;;;15.00;67.87;101625.81;5087932;28;20436;-51
2023/06/25 08:11:06;;;;;;;4.30;2.40;;;;;;;14.98;68.69;101627.88;5092702;28;20179;-49
2023/06/25 08:13:33;;;;;;;3.53;2.30;;;;;;;15.01;69.07;101622.91;5092871;28;20052;-51
2023/06/25 08:15:59;;;;;;;6.68;2.72;;;;;;;15.08;68.97;101625.56;5092892;28;20400;-51
2023/06/25 08:18:25;;;;;;;4.60;2.40;;;;;;;14.94;69.33;101627.50;5092695;28;20024;-51
2023/06/25 08:20:52;;;;;;;6.45;3.45;;;;;;;14.74;69.98;101626.78;5086461;28;20031;-51
2023/06/25 08:23:18;;;;;;;6.70;2.53;;;;;;;14.72;70.42;101631.56;5072342;28;20028;-48
2023/06/25 08:25:44;;;;;;;3.45;2.50;;;;;;;14.71;70.30;101625.34;5091690;28;20115;-50
2023/06/25 08:28:10;;;;;;;4.65;2.70;;;;;;;14.57;70.57;101625.59;5092181;28;20034;-51
2023/06/25 08:30:37;;;;;;;7.22;2.97;;;;;;;14.47;71.20;101637.66;5091570;28;20036;-49
2023/06/25 08:33:03;;;;;;;4.10;2.78;;;;;;;14.43;70.88;101628.28;5092706;28;20020;-50
2023/06/25 08:35:29;;;;;;;5.97;2.50;;;;;;;14.44;70.88;101621.88;5091691;28;20024;-50
2023/06/25 08:37:55;;;;;;;3.72;2.60;;;;;;;14.50;70.86;101623.75;5091526;28;20115;-51
2023/06/25 08:40:25;;;;;;;5.15;2.72;;;;;;;14.53;70.76;101617.09;5091839;28;20464;-50
2023/06/25 08:42:51;;;;;;;4.47;2.40;;;;;;;14.47;71.10;101618.78;5092039;28;20024;-51
2023/06/25 08:45:17;;;;;;;4.75;2.70;;;;;;;14.44;71.08;101616.50;5092115;28;20031;-51
2023/06/25 08:47:49;;;;;;;2.67;2.28;;;;;;;14.26;71.92;101616.34;5092651;28;20038;-47
2023/06/25 08:50:15;;;;;;;3.53;2.75;;;;;;;14.20;71.99;101622.56;5091982;28;20016;-50
2023/06/25 08:52:42;;;;;;;4.13;2.60;;;;;;;14.36;71.42;101614.03;5092223;28;20028;-49
2023/06/25 08:55:11;;;;;;;3.97;2.88;;;;;;;14.36;71.77;101615.91;5092136;28;20032;-49
2023/06/25 08:57:38;;;;;;;4.53;2.45;;;;;;;14.32;71.89;101615.47;5090829;28;20035;-48
2023/06/25 09:00:07;;;;;;;7.35;3.15;;;;;;;14.31;71.29;101619.22;5091630;28;20052;-48
2023/06/25 09:02:34;;;;;;;4.40;2.35;;;;;;;14.35;71.05;101619.63;5092085;28;20031;-47
2023/06/25 09:05:05;;;;;;;5.90;2.95;;;;;;;14.38;71.28;101624.56;5091922;28;20466;-48
2023/06/25 09:07:34;;;;;;;3.80;2.65;;;;;;;14.29;71.49;101626.69;5091923;28;20031;-47
2023/06/25 09:10:00;;;;;;;4.00;2.72;;;;;;;14.33;71.31;101617.16;5090451;28;20476;-47
2023/06/25 09:12:26;;;;;;;3.15;2.85;;;;;;;14.46;70.51;101618.97;5091968;28;20106;-47
2023/06/25 09:14:55;;;;;;;4.47;2.65;;;;;;;14.43;70.64;101622.09;5091839;28;20012;-47
2023/06/25 09:17:22;;;;;;;7.40;3.08;;;;;;;14.39;70.70;101624.41;5091680;28;20068;-47
2023/06/25 09:19:48;;;;;;;4.97;2.50;;;;;;;14.22;70.95;101625.91;5091537;28;20028;-49
2023/06/25 09:22:14;;;;;;;5.22;3.08;;;;;;;14.03;72.12;101627.56;5091715;28;20521;-50
2023/06/25 09:24:46;;;;;;;4.70;2.63;;;;;;;14.06;72.45;101626.34;5091699;28;20085;-47
2023/06/25 09:27:13;;;;;;;3.95;2.47;;;;;;;14.17;72.57;101617.63;5091642;28;20055;-48
2023/06/25 09:29:42;;;;;;;5.13;2.95;;;;;;;14.19;72.15;101620.91;5091239;28;20102;-51
2023/06/25 09:32:10;;;;;;;3.28;2.42;;;;;;;14.19;72.61;101626.31;5091949;28;20032;-49
2023/06/25 09:34:37;;;;;;;3.42;2.40;;;;;;;14.15;72.11;101633.13;5073537;28;20362;-51
2023/06/25 09:37:04;;;;;;;7.00;3.00;;;;;;;14.09;72.70;101633.97;5070215;28;20050;-51
2023/06/25 09:39:31;;;;;;;4.97;2.55;;;;;;;14.07;72.80;101628.00;5075045;28;20032;-51
2023/06/25 09:42:00;;;;;;;7.20;2.80;;;;;;;13.92;73.45;101629.03;5091082;28;20032;-51
2023/06/25 09:44:30;;;;;;;3.92;2.80;;;;;;;13.90;73.06;101628.41;5095281;28;20081;-51
2023/06/25 09:47:03;;;;;;;7.45;2.95;;;;;;;13.90;73.61;101632.97;5095555;28;20040;-52
2023/06/25 09:49:31;;;;;;;4.05;2.60;;;;;;;13.89;73.38;101626.78;5094228;28;20051;-49
2023/06/25 09:52:14;;;;;;;4.55;2.47;;;;;;;13.97;73.23;101629.22;5095661;28;20541;-47
2023/06/25 09:54:42;;;;;;;4.15;2.80;;;;;;;13.83;73.67;101624.91;5095319;28;20032;-47
2023/06/25 09:57:14;;;;;;;3.35;2.42;;;;;;;13.99;72.78;101621.78;5084031;28;20036;-49
2023/06/25 09:59:41;;;;;;;3.97;2.50;;;;;;;13.98;72.47;101620.13;5087790;28;20032;-48
2023/06/25 10:02:08;;;;;;;4.88;2.70;;;;;;;13.97;72.59;101621.16;5095343;28;20545;-48
2023/06/25 10:04:36;;;;;;;5.40;2.50;;;;;;;13.91;72.80;101623.88;5095815;28;20142;-47
2023/06/25 10:07:04;;;;;;;6.30;2.67;;;;;;;13.92;73.08;101622.81;5095214;28;20453;-48
2023/06/25 10:09:30;;;;;;;5.13;2.60;;;;;;;13.91;73.34;101618.47;5095165;28;20027;-50
2023/06/25 10:11:57;;;;;;;5.55;2.95;;;;;;;13.93;73.93;101619.09;5095111;28;20483;-51
2023/06/25 10:14:24;;;;;;;5.20;2.80;;;;;;;13.98;73.89;101617.44;5095291;28;20048;-51
2023/06/25 10:16:56;;;;;;;7.75;3.00;;;;;;;14.03;73.70;101619.50;5095524;28;20035;-51
2023/06/25 10:19:27;;;;;;;6.93;2.72;;;;;;;14.03;73.09;101618.66;5074681;28;20020;-51
2023/06/25 10:22:10;;;;;;;4.25;2.60;;;;;;;13.90;73.48;101616.84;5074551;28;20413;-51
2023/06/25 10:24:38;;;;;;;4.95;2.28;;;;;;;13.84;73.50;101606.91;5090030;28;20039;-51
2023/06/25 10:27:04;;;;;;;5.70;2.20;;;;;;;13.91;73.45;101613.94;5094668;28;20020;-51
2023/06/25 10:29:41;;;;;;;6.38;3.00;;;;;;;13.93;73.40;101609.16;5095033;28;20031;-51
2023/06/25 10:32:07;;;;;;;4.18;2.45;;;;;;;13.96;73.80;101608.75;5094895;28;20016;-50
2023/06/25 10:34:40;;;;;;;5.75;2.45;;;;;;;13.89;74.19;101604.41;5095536;28;20404;-50
2023/06/25 10:37:07;;;;;;;3.28;2.60;;;;;;;13.91;73.78;101608.53;5094954;28;20020;-52
2023/06/25 10:39:40;;;;;;;6.43;2.30;;;;;;;13.82;74.39;101603.56;5094871;28;20533;-51
2023/06/25 10:42:08;;;;;;;7.88;3.20;;;;;;;13.93;74.33;101600.25;5094676;28;20035;-47
2023/06/25 10:44:35;;;;;;;6.38;2.50;;;;;;;14.00;74.04;101599.22;5095016;28;20043;-47
2023/06/25 10:47:09;;;;;;;4.47;2.22;;;;;;;13.93;74.10;101593.00;5092859;28;20063;-47
2023/06/25 10:49:37;;;;;;;5.18;2.63;;;;;;;13.87;74.31;101601.91;5073960;28;20107;-49
2023/06/25 10:52:04;;;;;;;4.50;2.42;;;;;;;13.85;74.31;101603.19;5074254;28;20108;-47
2023/06/25 10:54:33;;;;;;;4.63;2.17;;;;;;;13.94;73.96;101605.44;5091457;28;20077;-51
2023/06/25 10:57:13;;;;;;;8.05;2.83;;;;;;;13.92;73.74;101602.13;5085740;28;20071;-50
2023/06/25 10:59:40;;;;;;;5.43;2.38;;;;;;;13.89;74.01;101607.13;5092794;28;20058;-48
2023/06/25 11:02:14;;;;;;;4.70;2.25;;;;;;;13.83;74.19;101602.56;5093552;28;20545;-48
2023/06/25 11:04:42;;;;;;;4.25;2.30;;;;;;;13.82;74.01;101604.41;5093893;28;20468;-48
2023/06/25 11:07:11;;;;;;;4.45;2.58;;;;;;;13.62;74.57;101601.75;5094065;28;20365;-47
2023/06/25 11:09:38;;;;;;;6.30;2.75;;;;;;;13.72;74.55;101604.84;5093835;28;20621;-47
2023/06/25 11:12:08;;;;;;;4.47;2.38;;;;;;;13.78;74.90;101613.13;5093981;28;20107;-49
2023/06/25 11:14:34;;;;;;;5.38;2.42;;;;;;;13.71;74.93;101618.47;5094043;28;20016;-47
2023/06/25 11:17:00;;;;;;;4.72;2.63;;;;;;;13.84;74.77;101613.13;5093893;28;20388;-47
2023/06/25 11:19:30;;;;;;;3.10;2.00;;;;;;;13.79;74.35;101615.59;5093554;28;20027;-47
2023/06/25 11:21:56;;;;;;;3.85;2.13;;;;;;;13.83;74.04;101614.16;5093237;28;20040;-47
2023/06/25 11:24:22;;;;;;;6.30;2.67;;;;;;;13.83;74.25;101605.25;5093816;28;20106;-46